sensor_id;sensor_type;location;lat;lon;timestamp;pressure;altitude;pressure_sealevel;temperature;humidity
12763;BME280;6445;52.490;13.378;2023-05-10T00:00:10;51883.94;;;-146.10;61.99
12763;BME280;6445;52.490;13.378;2023-05-10T00:02:36;51885.94;;;-146.10;62.25
12763;BME280;6445;52.490;13.378;2023-05-10T00:05:01;51893.94;;;-146.10;62.15
12763;BME280;6445;52.490;13.378;2023-05-10T00:07:26;51895.94;;;-146.10;62.25
12763;BME280;6445;52.490;13.378;2023-05-10T00:09:51;51911.94;;;-146.10;62.61
12763;BME280;6445;52.490;13.378;2023-05-10T00:12:17;51883.94;;;-146.10;62.52
12763;BME280;6445;52.490;13.378;2023-05-10T00:14:42;51893.94;;;-146.10;62.88
12763;BME280;6445;52.490;13.378;2023-05-10T00:17:07;51893.94;;;-146.10;62.83
12763;BME280;6445;52.490;13.378;2023-05-10T00:19:32;51879.94;;;-146.10;63.04
12763;BME280;6445;52.490;13.378;2023-05-10T00:21:58;51899.94;;;-146.10;63.14
12763;BME280;6445;52.490;13.378;2023-05-10T00:24:23;51877.94;;;-146.10;63.47
12763;BME280;6445;52.490;13.378;2023-05-10T00:26:48;51895.94;;;-146.10;63.33
12763;BME280;6445;52.490;13.378;2023-05-10T00:29:13;51885.94;;;-146.10;63.13
12763;BME280;6445;52.490;13.378;2023-05-10T00:31:39;51861.94;;;-146.10;63.62
12763;BME280;6445;52.490;13.378;2023-05-10T00:34:04;51897.94;;;-146.10;63.35
12763;BME280;6445;52.490;13.378;2023-05-10T00:36:29;51885.94;;;-146.10;63.91
12763;BME280;6445;52.490;13.378;2023-05-10T00:38:56;51873.94;;;-146.10;64.40
12763;BME280;6445;52.490;13.378;2023-05-10T00:41:21;51875.94;;;-146.10;64.76
12763;BME280;6445;52.490;13.378;2023-05-10T00:43:46;51871.94;;;-146.10;64.77
12763;BME280;6445;52.490;13.378;2023-05-10T00:46:13;51901.94;;;-146.10;65.00
12763;BME280;6445;52.490;13.378;2023-05-10T00:48:39;51893.94;;;-146.10;64.65
12763;BME280;6445;52.490;13.378;2023-05-10T00:51:04;51863.94;;;-146.10;64.82
12763;BME280;6445;52.490;13.378;2023-05-10T00:53:31;51889.94;;;-146.10;65.38
12763;BME280;6445;52.490;13.378;2023-05-10T00:55:57;51879.94;;;-146.10;65.47
12763;BME280;6445;52.490;13.378;2023-05-10T00:58:23;51905.94;;;-146.10;65.46
12763;BME280;6445;52.490;13.378;2023-05-10T01:00:49;51849.94;;;-146.10;66.14
12763;BME280;6445;52.490;13.378;2023-05-10T01:03:15;51891.94;;;-146.10;66.09
12763;BME280;6445;52.490;13.378;2023-05-10T01:05:40;51865.94;;;-146.10;66.11
12763;BME280;6445;52.490;13.378;2023-05-10T01:08:05;51849.94;;;-146.10;65.94
12763;BME280;6445;52.490;13.378;2023-05-10T01:10:31;51899.94;;;-146.10;66.67
12763;BME280;6445;52.490;13.378;2023-05-10T01:12:56;51849.94;;;-146.10;67.44
12763;BME280;6445;52.490;13.378;2023-05-10T01:15:23;51853.94;;;-146.10;67.40
12763;BME280;6445;52.490;13.378;2023-05-10T01:17:49;51871.94;;;-146.10;67.14
12763;BME280;6445;52.490;13.378;2023-05-10T01:20:14;51847.94;;;-146.10;68.05
12763;BME280;6445;52.490;13.378;2023-05-10T01:28:37;51853.94;;;-146.10;71.06
12763;BME280;6445;52.490;13.378;2023-05-10T01:33:55;51831.94;;;-146.10;72.59
12763;BME280;6445;52.490;13.378;2023-05-10T01:36:32;51843.94;;;-146.10;72.90
12763;BME280;6445;52.490;13.378;2023-05-10T01:39:11;51809.94;;;-146.10;73.26
12763;BME280;6445;52.490;13.378;2023-05-10T01:42:08;51799.94;;;-146.10;74.08
12763;BME280;6445;52.490;13.378;2023-05-10T01:44:35;51807.94;;;-146.10;74.70
12763;BME280;6445;52.490;13.378;2023-05-10T01:47:14;51797.91;;;-146.10;76.05
12763;BME280;6445;52.490;13.378;2023-05-10T01:49:47;51775.91;;;-146.10;76.30
12763;BME280;6445;52.490;13.378;2023-05-10T01:52:18;51777.91;;;-146.10;77.03
12763;BME280;6445;52.490;13.378;2023-05-10T01:55:05;51767.91;;;-146.10;75.48
12763;BME280;6445;52.490;13.378;2023-05-10T01:57:34;51781.91;;;-146.10;75.89
12763;BME280;6445;52.490;13.378;2023-05-10T02:00:01;51781.91;;;-146.10;75.43
12763;BME280;6445;52.490;13.378;2023-05-10T02:02:28;51771.91;;;-146.10;75.53
12763;BME280;6445;52.490;13.378;2023-05-10T02:04:55;51763.91;;;-146.10;75.69
12763;BME280;6445;52.490;13.378;2023-05-10T02:07:23;51763.91;;;-146.10;75.07
12763;BME280;6445;52.490;13.378;2023-05-10T02:09:49;51763.91;;;-146.10;75.35
12763;BME280;6445;52.490;13.378;2023-05-10T02:12:15;51785.91;;;-146.10;75.49
12763;BME280;6445;52.490;13.378;2023-05-10T02:14:42;51773.91;;;-146.10;74.97
12763;BME280;6445;52.490;13.378;2023-05-10T02:17:08;51775.91;;;-146.10;74.62
12763;BME280;6445;52.490;13.378;2023-05-10T02:19:36;51759.91;;;-146.10;75.09
12763;BME280;6445;52.490;13.378;2023-05-10T02:22:03;51753.91;;;-146.10;74.60
12763;BME280;6445;52.490;13.378;2023-05-10T02:24:29;51765.91;;;-146.10;75.28
12763;BME280;6445;52.490;13.378;2023-05-10T02:26:55;51773.91;;;-146.10;75.58
12763;BME280;6445;52.490;13.378;2023-05-10T02:29:23;51745.91;;;-146.10;75.71
12763;BME280;6445;52.490;13.378;2023-05-10T02:31:51;51763.91;;;-146.10;76.34
12763;BME280;6445;52.490;13.378;2023-05-10T02:34:17;51743.91;;;-146.10;76.89
12763;BME280;6445;52.490;13.378;2023-05-10T02:36:43;51737.91;;;-146.10;77.17
12763;BME280;6445;52.490;13.378;2023-05-10T02:39:09;51723.91;;;-146.10;77.22
12763;BME280;6445;52.490;13.378;2023-05-10T02:41:37;51705.91;;;-146.10;76.90
12763;BME280;6445;52.490;13.378;2023-05-10T02:44:06;51731.91;;;-146.10;76.97
12763;BME280;6445;52.490;13.378;2023-05-10T02:46:32;51721.91;;;-146.10;77.17
12763;BME280;6445;52.490;13.378;2023-05-10T02:48:58;51711.91;;;-146.10;78.35
12763;BME280;6445;52.490;13.378;2023-05-10T02:51:25;51707.91;;;-146.10;77.57
12763;BME280;6445;52.490;13.378;2023-05-10T02:53:53;51705.91;;;-146.10;79.04
12763;BME280;6445;52.490;13.378;2023-05-10T02:56:25;51623.91;;;-146.10;80.33
12763;BME280;6445;52.490;13.378;2023-05-10T02:58:50;51649.91;;;-146.10;80.73
12763;BME280;6445;52.490;13.378;2023-05-10T03:01:16;51605.88;;;-146.10;81.30
12763;BME280;6445;52.490;13.378;2023-05-10T03:03:41;51591.88;;;-146.10;82.04
12763;BME280;6445;52.490;13.378;2023-05-10T03:06:07;51579.88;;;-146.10;82.17
12763;BME280;6445;52.490;13.378;2023-05-10T03:08:32;51533.88;;;-146.10;82.80
12763;BME280;6445;52.490;13.378;2023-05-10T03:13:36;51481.88;;;-146.10;83.41
12763;BME280;6445;52.490;13.378;2023-05-10T03:16:12;51399.88;;;-146.10;84.34
12763;BME280;6445;52.490;13.378;2023-05-10T03:18:56;51369.88;;;-146.10;85.38
12763;BME280;6445;52.490;13.378;2023-05-10T03:21:28;51317.84;;;-146.10;85.83
12763;BME280;6445;52.490;13.378;2023-05-10T03:23:59;51299.84;;;-146.10;86.16
12763;BME280;6445;52.490;13.378;2023-05-10T03:26:28;51339.84;;;-146.10;84.93
12763;BME280;6445;52.490;13.378;2023-05-10T03:28:55;51355.88;;;-146.10;85.17
12763;BME280;6445;52.490;13.378;2023-05-10T03:31:21;51283.84;;;-146.10;85.60
12763;BME280;6445;52.490;13.378;2023-05-10T03:33:50;51313.84;;;-146.10;85.09
12763;BME280;6445;52.490;13.378;2023-05-10T03:36:16;51321.84;;;-146.10;84.74
12763;BME280;6445;52.490;13.378;2023-05-10T03:38:42;51301.84;;;-146.10;85.41
12763;BME280;6445;52.490;13.378;2023-05-10T03:41:07;51361.88;;;-146.10;84.56
12763;BME280;6445;52.490;13.378;2023-05-10T03:43:32;51319.84;;;-146.10;84.84
12763;BME280;6445;52.490;13.378;2023-05-10T03:45:57;51283.84;;;-146.10;85.37
12763;BME280;6445;52.490;13.378;2023-05-10T03:48:23;51331.84;;;-146.10;84.33
12763;BME280;6445;52.490;13.378;2023-05-10T03:50:48;51337.84;;;-146.10;84.27
12763;BME280;6445;52.490;13.378;2023-05-10T03:53:14;51395.88;;;-146.10;83.31
12763;BME280;6445;52.490;13.378;2023-05-10T03:55:39;51419.88;;;-146.10;83.54
12763;BME280;6445;52.490;13.378;2023-05-10T03:58:05;51435.88;;;-146.10;82.49
12763;BME280;6445;52.490;13.378;2023-05-10T04:00:30;51487.88;;;-146.10;81.90
12763;BME280;6445;52.490;13.378;2023-05-10T04:02:56;51495.88;;;-146.10;81.62
12763;BME280;6445;52.490;13.378;2023-05-10T04:05:21;51549.88;;;-146.10;80.41
12763;BME280;6445;52.490;13.378;2023-05-10T04:07:47;51575.88;;;-146.10;79.80
12763;BME280;6445;52.490;13.378;2023-05-10T04:10:14;51575.88;;;-146.10;79.83
12763;BME280;6445;52.490;13.378;2023-05-10T04:12:41;51591.88;;;-146.10;79.36
12763;BME280;6445;52.490;13.378;2023-05-10T04:15:07;51623.91;;;-146.10;78.13
12763;BME280;6445;52.490;13.378;2023-05-10T04:17:32;51637.91;;;-146.10;78.24
12763;BME280;6445;52.490;13.378;2023-05-10T04:19:57;51653.91;;;-146.10;77.17
12763;BME280;6445;52.490;13.378;2023-05-10T04:22:22;51657.91;;;-146.10;76.97
12763;BME280;6445;52.490;13.378;2023-05-10T04:24:48;51655.91;;;-146.10;76.68
12763;BME280;6445;52.490;13.378;2023-05-10T04:27:13;51685.91;;;-146.10;76.58
12763;BME280;6445;52.490;13.378;2023-05-10T04:29:38;51681.91;;;-146.10;75.81
12763;BME280;6445;52.490;13.378;2023-05-10T04:32:04;51709.91;;;-146.10;75.07
12763;BME280;6445;52.490;13.378;2023-05-10T04:34:29;51707.91;;;-146.10;74.76
12763;BME280;6445;52.490;13.378;2023-05-10T04:36:54;51713.91;;;-146.10;74.31
12763;BME280;6445;52.490;13.378;2023-05-10T04:39:20;51761.91;;;-146.10;73.47
12763;BME280;6445;52.490;13.378;2023-05-10T04:41:45;51737.91;;;-146.10;73.42
12763;BME280;6445;52.490;13.378;2023-05-10T04:44:10;51735.91;;;-146.10;72.68
12763;BME280;6445;52.490;13.378;2023-05-10T04:46:36;51747.91;;;-146.10;71.94
12763;BME280;6445;52.490;13.378;2023-05-10T04:49:01;51759.91;;;-146.10;72.29
12763;BME280;6445;52.490;13.378;2023-05-10T04:51:26;51785.91;;;-146.10;71.42
12763;BME280;6445;52.490;13.378;2023-05-10T04:53:51;51765.91;;;-146.10;70.89
12763;BME280;6445;52.490;13.378;2023-05-10T04:56:17;51799.94;;;-146.10;69.82
12763;BME280;6445;52.490;13.378;2023-05-10T04:58:42;51799.94;;;-146.10;69.98
12763;BME280;6445;52.490;13.378;2023-05-10T05:01:08;51807.94;;;-146.10;69.01
12763;BME280;6445;52.490;13.378;2023-05-10T05:03:34;51829.94;;;-146.10;68.43
12763;BME280;6445;52.490;13.378;2023-05-10T05:05:59;51835.94;;;-146.10;68.17
12763;BME280;6445;52.490;13.378;2023-05-10T05:08:24;51855.94;;;-146.10;67.59
12763;BME280;6445;52.490;13.378;2023-05-10T05:10:50;51855.94;;;-146.10;67.37
12763;BME280;6445;52.490;13.378;2023-05-10T05:13:15;51833.94;;;-146.10;66.53
12763;BME280;6445;52.490;13.378;2023-05-10T05:15:40;51841.94;;;-146.10;66.41
12763;BME280;6445;52.490;13.378;2023-05-10T05:18:06;51863.94;;;-146.10;65.87
12763;BME280;6445;52.490;13.378;2023-05-10T05:20:32;51867.94;;;-146.10;65.82
12763;BME280;6445;52.490;13.378;2023-05-10T05:22:58;51865.94;;;-146.10;64.64
12763;BME280;6445;52.490;13.378;2023-05-10T05:25:23;51859.94;;;-146.10;64.50
12763;BME280;6445;52.490;13.378;2023-05-10T05:27:48;51899.94;;;-146.10;62.58
12763;BME280;6445;52.490;13.378;2023-05-10T05:30:14;51933.94;;;-146.10;57.88
12763;BME280;6445;52.490;13.378;2023-05-10T05:32:39;51961.97;;;-146.10;55.06
12763;BME280;6445;52.490;13.378;2023-05-10T05:35:04;52003.97;;;-146.10;51.61
12763;BME280;6445;52.490;13.378;2023-05-10T05:37:30;52027.97;;;-146.10;49.53
12763;BME280;6445;52.490;13.378;2023-05-10T05:39:56;52023.97;;;-146.10;48.71
12763;BME280;6445;52.490;13.378;2023-05-10T05:42:21;52019.97;;;-146.10;48.81
12763;BME280;6445;52.490;13.378;2023-05-10T05:44:47;52065.97;;;-146.10;47.68
12763;BME280;6445;52.490;13.378;2023-05-10T05:47:12;52043.97;;;-146.10;46.63
12763;BME280;6445;52.490;13.378;2023-05-10T05:49:38;52047.97;;;-146.10;46.63
12763;BME280;6445;52.490;13.378;2023-05-10T05:52:04;52031.97;;;-146.10;46.14
12763;BME280;6445;52.490;13.378;2023-05-10T05:54:30;52065.97;;;-146.10;45.17
12763;BME280;6445;52.490;13.378;2023-05-10T05:56:59;52059.97;;;-146.10;45.25
12763;BME280;6445;52.490;13.378;2023-05-10T05:59:25;52076.00;;;-146.10;44.32
12763;BME280;6445;52.490;13.378;2023-05-10T06:01:51;52088.00;;;-146.10;43.49
12763;BME280;6445;52.490;13.378;2023-05-10T06:04:17;52138.00;;;-146.10;42.41
12763;BME280;6445;52.490;13.378;2023-05-10T06:06:42;52092.00;;;-146.10;42.79
12763;BME280;6445;52.490;13.378;2023-05-10T06:09:08;52132.00;;;-146.10;41.62
12763;BME280;6445;52.490;13.378;2023-05-10T06:11:33;52162.00;;;-146.10;40.46
12763;BME280;6445;52.490;13.378;2023-05-10T06:13:59;52162.00;;;-146.10;40.24
12763;BME280;6445;52.490;13.378;2023-05-10T06:16:24;52122.00;;;-146.10;41.11
12763;BME280;6445;52.490;13.378;2023-05-10T06:18:49;52144.00;;;-146.10;40.47
12763;BME280;6445;52.490;13.378;2023-05-10T06:21:15;52152.00;;;-146.10;39.65
12763;BME280;6445;52.490;13.378;2023-05-10T06:23:41;52200.03;;;-146.10;39.18
12763;BME280;6445;52.490;13.378;2023-05-10T06:26:06;52214.03;;;-146.10;38.48
12763;BME280;6445;52.490;13.378;2023-05-10T06:28:31;52160.00;;;-146.10;38.02
12763;BME280;6445;52.490;13.378;2023-05-10T06:30:58;52194.03;;;-146.10;39.02
12763;BME280;6445;52.490;13.378;2023-05-10T06:33:23;52146.00;;;-146.10;38.82
12763;BME280;6445;52.490;13.378;2023-05-10T06:35:48;52140.00;;;-146.10;39.40
12763;BME280;6445;52.490;13.378;2023-05-10T06:38:14;52176.00;;;-146.10;39.29
12763;BME280;6445;52.490;13.378;2023-05-10T06:40:43;52194.03;;;-146.10;38.82
12763;BME280;6445;52.490;13.378;2023-05-10T06:43:09;52190.03;;;-146.10;37.95
12763;BME280;6445;52.490;13.378;2023-05-10T06:45:34;52246.03;;;-146.10;37.26
12763;BME280;6445;52.490;13.378;2023-05-10T06:48:00;52208.03;;;-146.10;37.53
12763;BME280;6445;52.490;13.378;2023-05-10T06:50:26;52222.03;;;-146.10;37.87
12763;BME280;6445;52.490;13.378;2023-05-10T06:52:51;52220.03;;;-146.10;37.04
12763;BME280;6445;52.490;13.378;2023-05-10T06:55:16;52222.03;;;-146.10;36.50
12763;BME280;6445;52.490;13.378;2023-05-10T06:57:41;52274.03;;;-146.10;36.41
12763;BME280;6445;52.490;13.378;2023-05-10T07:00:07;52270.03;;;-146.10;35.14
12763;BME280;6445;52.490;13.378;2023-05-10T07:02:34;52262.03;;;-146.10;35.91
12763;BME280;6445;52.490;13.378;2023-05-10T07:04:59;52254.03;;;-146.10;36.07
12763;BME280;6445;52.490;13.378;2023-05-10T07:07:24;52308.06;;;-146.10;35.57
12763;BME280;6445;52.490;13.378;2023-05-10T07:09:50;52284.03;;;-146.10;35.33
12763;BME280;6445;52.490;13.378;2023-05-10T07:12:16;52298.06;;;-146.10;35.16
12763;BME280;6445;52.490;13.378;2023-05-10T07:14:41;52320.06;;;-146.10;34.21
12763;BME280;6445;52.490;13.378;2023-05-10T07:17:07;52338.06;;;-146.10;34.08
12763;BME280;6445;52.490;13.378;2023-05-10T07:19:32;52290.06;;;-146.10;34.39
12763;BME280;6445;52.490;13.378;2023-05-10T07:21:58;52424.09;;;-146.10;32.94
12763;BME280;6445;52.490;13.378;2023-05-10T07:24:23;52386.09;;;-146.10;32.94
12763;BME280;6445;52.490;13.378;2023-05-10T07:26:49;52354.06;;;-146.10;33.45
12763;BME280;6445;52.490;13.378;2023-05-10T07:29:14;52378.06;;;-146.10;33.20
12763;BME280;6445;52.490;13.378;2023-05-10T07:31:39;52378.06;;;-146.10;33.08
12763;BME280;6445;52.490;13.378;2023-05-10T07:34:06;52418.09;;;-146.10;32.70
12763;BME280;6445;52.490;13.378;2023-05-10T07:36:32;52388.09;;;-146.10;32.87
12763;BME280;6445;52.490;13.378;2023-05-10T07:38:57;52418.09;;;-146.10;32.30
12763;BME280;6445;52.490;13.378;2023-05-10T07:41:22;52468.09;;;-146.10;32.49
12763;BME280;6445;52.490;13.378;2023-05-10T07:43:48;52412.09;;;-146.10;32.30
12763;BME280;6445;52.490;13.378;2023-05-10T07:46:13;52348.06;;;-146.10;32.70
12763;BME280;6445;52.490;13.378;2023-05-10T07:48:38;52362.06;;;-146.10;32.89
12763;BME280;6445;52.490;13.378;2023-05-10T07:51:03;52432.09;;;-146.10;32.58
12763;BME280;6445;52.490;13.378;2023-05-10T07:53:29;52500.13;;;-146.10;31.81
12763;BME280;6445;52.490;13.378;2023-05-10T07:55:57;52492.13;;;-146.10;31.51
12763;BME280;6445;52.490;13.378;2023-05-10T07:58:23;52408.09;;;-146.10;32.18
12763;BME280;6445;52.490;13.378;2023-05-10T08:00:48;52438.09;;;-146.10;31.44
12763;BME280;6445;52.490;13.378;2023-05-10T08:03:14;52424.09;;;-146.10;31.44
12763;BME280;6445;52.490;13.378;2023-05-10T08:05:39;52460.09;;;-146.10;31.54
12763;BME280;6445;52.490;13.378;2023-05-10T08:08:05;52446.09;;;-146.10;31.50
12763;BME280;6445;52.490;13.378;2023-05-10T08:10:30;52488.13;;;-146.10;31.23
12763;BME280;6445;52.490;13.378;2023-05-10T08:12:56;52470.13;;;-146.10;30.93
12763;BME280;6445;52.490;13.378;2023-05-10T08:15:21;52564.16;;;-146.10;30.20
12763;BME280;6445;52.490;13.378;2023-05-10T08:17:46;52496.13;;;-146.10;30.86
12763;BME280;6445;52.490;13.378;2023-05-10T08:20:11;52476.13;;;-146.10;30.96
12763;BME280;6445;52.490;13.378;2023-05-10T08:22:37;52582.16;;;-146.10;30.01
12763;BME280;6445;52.490;13.378;2023-05-10T08:25:03;52514.13;;;-146.10;30.53
12763;BME280;6445;52.490;13.378;2023-05-10T08:27:28;52638.19;;;-146.10;29.48
12763;BME280;6445;52.490;13.378;2023-05-10T08:29:54;52666.19;;;-146.10;29.08
12763;BME280;6445;52.490;13.378;2023-05-10T08:32:19;52598.16;;;-146.10;29.00
12763;BME280;6445;52.490;13.378;2023-05-10T08:34:44;52514.13;;;-146.10;30.18
12763;BME280;6445;52.490;13.378;2023-05-10T08:37:09;52584.16;;;-146.10;29.79
12763;BME280;6445;52.490;13.378;2023-05-10T08:39:37;52580.16;;;-146.10;29.76
12763;BME280;6445;52.490;13.378;2023-05-10T08:42:04;52658.19;;;-146.10;29.15
12763;BME280;6445;52.490;13.378;2023-05-10T08:44:35;52718.22;;;-146.10;28.77
12763;BME280;6445;52.490;13.378;2023-05-10T08:47:05;52712.22;;;-146.10;28.65
12763;BME280;6445;52.490;13.378;2023-05-10T08:49:32;52676.19;;;-146.10;28.75
12763;BME280;6445;52.490;13.378;2023-05-10T08:52:00;52640.19;;;-146.10;28.75
12763;BME280;6445;52.490;13.378;2023-05-10T08:54:27;52608.16;;;-146.10;29.37
12763;BME280;6445;52.490;13.378;2023-05-10T08:56:52;52656.19;;;-146.10;29.16
12763;BME280;6445;52.490;13.378;2023-05-10T08:59:18;52676.19;;;-146.10;28.32
12763;BME280;6445;52.490;13.378;2023-05-10T09:01:44;52736.22;;;-146.10;28.37
12763;BME280;6445;52.490;13.378;2023-05-10T09:04:10;52698.19;;;-146.10;28.16
12763;BME280;6445;52.490;13.378;2023-05-10T09:06:37;52670.19;;;-146.10;28.39
12763;BME280;6445;52.490;13.378;2023-05-10T09:09:02;52602.16;;;-146.10;28.95
12763;BME280;6445;52.490;13.378;2023-05-10T09:11:28;52630.16;;;-146.10;28.95
12763;BME280;6445;52.490;13.378;2023-05-10T09:13:55;52644.19;;;-146.10;28.85
12763;BME280;6445;52.490;13.378;2023-05-10T09:16:20;52632.19;;;-146.10;29.05
12763;BME280;6445;52.490;13.378;2023-05-10T09:18:46;52674.19;;;-146.10;28.53
12763;BME280;6445;52.490;13.378;2023-05-10T09:21:11;52654.19;;;-146.10;29.02
12763;BME280;6445;52.490;13.378;2023-05-10T09:23:36;52822.25;;;-146.10;27.82
12763;BME280;6445;52.490;13.378;2023-05-10T09:26:03;52820.25;;;-146.10;27.50
12763;BME280;6445;52.490;13.378;2023-05-10T09:28:33;52722.22;;;-146.10;28.53
12763;BME280;6445;52.490;13.378;2023-05-10T09:30:59;52692.19;;;-146.10;28.55
12763;BME280;6445;52.490;13.378;2023-05-10T09:33:25;52696.19;;;-146.10;28.81
12763;BME280;6445;52.490;13.378;2023-05-10T09:35:51;52718.22;;;-146.10;28.10
12763;BME280;6445;52.490;13.378;2023-05-10T09:38:17;52802.25;;;-146.10;27.79
12763;BME280;6445;52.490;13.378;2023-05-10T09:40:51;52598.16;;;-146.10;28.95
12763;BME280;6445;52.490;13.378;2023-05-10T09:43:19;52764.22;;;-146.10;28.21
12763;BME280;6445;52.490;13.378;2023-05-10T09:45:48;52704.19;;;-146.10;28.36
12763;BME280;6445;52.490;13.378;2023-05-10T09:48:14;52688.19;;;-146.10;28.34
12763;BME280;6445;52.490;13.378;2023-05-10T09:50:40;52668.19;;;-146.10;28.59
12763;BME280;6445;52.490;13.378;2023-05-10T09:53:06;52812.25;;;-146.10;27.69
12763;BME280;6445;52.490;13.378;2023-05-10T09:58:05;52840.25;;;-146.10;27.47
12763;BME280;6445;52.490;13.378;2023-05-10T10:00:39;52746.22;;;-146.10;27.91
12763;BME280;6445;52.490;13.378;2023-05-10T10:03:05;52826.25;;;-146.10;27.21
12763;BME280;6445;52.490;13.378;2023-05-10T10:05:33;52900.28;;;-146.10;26.66
12763;BME280;6445;52.490;13.378;2023-05-10T10:07:59;52884.28;;;-146.10;26.76
12763;BME280;6445;52.490;13.378;2023-05-10T10:10:25;52974.31;;;-146.10;26.38
12763;BME280;6445;52.490;13.378;2023-05-10T10:12:51;52936.31;;;-146.10;26.49
12763;BME280;6445;52.490;13.378;2023-05-10T10:15:17;52892.28;;;-146.10;26.86
12763;BME280;6445;52.490;13.378;2023-05-10T10:17:43;52880.28;;;-146.10;26.52
12763;BME280;6445;52.490;13.378;2023-05-10T10:20:08;52774.22;;;-146.10;27.22
12763;BME280;6445;52.490;13.378;2023-05-10T10:22:34;52918.31;;;-146.10;26.38
12763;BME280;6445;52.490;13.378;2023-05-10T10:24:59;52872.28;;;-146.10;26.88
12763;BME280;6445;52.490;13.378;2023-05-10T10:30:42;52862.28;;;-146.10;26.96
12763;BME280;6445;52.490;13.378;2023-05-10T10:35:45;52964.31;;;-146.10;26.28
12763;BME280;6445;52.490;13.378;2023-05-10T10:38:12;52870.28;;;-146.10;26.86
12763;BME280;6445;52.490;13.378;2023-05-10T10:40:38;52746.22;;;-146.10;27.85
12763;BME280;6445;52.490;13.378;2023-05-10T10:43:23;52744.22;;;-146.10;27.62
12763;BME280;6445;52.490;13.378;2023-05-10T10:46:17;52730.22;;;-146.10;27.62
12763;BME280;6445;52.490;13.378;2023-05-10T10:48:50;52780.25;;;-146.10;27.34
12763;BME280;6445;52.490;13.378;2023-05-10T10:51:32;52774.22;;;-146.10;27.52
12763;BME280;6445;52.490;13.378;2023-05-10T10:54:09;52766.22;;;-146.10;26.95
12763;BME280;6445;52.490;13.378;2023-05-10T10:56:35;52794.25;;;-146.10;27.37
12763;BME280;6445;52.490;13.378;2023-05-10T10:59:00;52846.28;;;-146.10;26.76
12763;BME280;6445;52.490;13.378;2023-05-10T11:01:32;52880.28;;;-146.10;26.50
12763;BME280;6445;52.490;13.378;2023-05-10T11:06:34;52708.22;;;-146.10;27.66
12763;BME280;6445;52.490;13.378;2023-05-10T11:09:07;52746.22;;;-146.10;27.48
12763;BME280;6445;52.490;13.378;2023-05-10T11:11:34;52784.25;;;-146.10;27.06
12763;BME280;6445;52.490;13.378;2023-05-10T11:14:04;52768.22;;;-146.10;27.18
12763;BME280;6445;52.490;13.378;2023-05-10T11:16:41;52746.22;;;-146.10;27.78
12763;BME280;6445;52.490;13.378;2023-05-10T11:19:09;52724.22;;;-146.10;27.90
12763;BME280;6445;52.490;13.378;2023-05-10T11:21:48;52680.19;;;-146.10;28.56
12763;BME280;6445;52.490;13.378;2023-05-10T11:24:19;52662.19;;;-146.10;28.14
12763;BME280;6445;52.490;13.378;2023-05-10T11:26:45;52620.16;;;-146.10;28.46
12763;BME280;6445;52.490;13.378;2023-05-10T11:29:12;52708.22;;;-146.10;28.00
12763;BME280;6445;52.490;13.378;2023-05-10T11:31:44;52772.22;;;-146.10;27.37
12763;BME280;6445;52.490;13.378;2023-05-10T11:34:10;52668.19;;;-146.10;28.04
12763;BME280;6445;52.490;13.378;2023-05-10T11:36:36;52716.22;;;-146.10;27.33
12763;BME280;6445;52.490;13.378;2023-05-10T11:39:02;52690.19;;;-146.10;27.83
12763;BME280;6445;52.490;13.378;2023-05-10T11:41:29;52778.25;;;-146.10;27.12
12763;BME280;6445;52.490;13.378;2023-05-10T11:43:55;52710.22;;;-146.10;27.22
12763;BME280;6445;52.490;13.378;2023-05-10T11:46:23;52706.22;;;-146.10;27.63
12763;BME280;6445;52.490;13.378;2023-05-10T11:48:53;52600.16;;;-146.10;27.71
12763;BME280;6445;52.490;13.378;2023-05-10T11:51:20;52608.16;;;-146.10;28.49
12763;BME280;6445;52.490;13.378;2023-05-10T11:53:46;52702.19;;;-146.10;27.11
12763;BME280;6445;52.490;13.378;2023-05-10T11:56:11;52712.22;;;-146.10;27.45
12763;BME280;6445;52.490;13.378;2023-05-10T11:58:38;52678.19;;;-146.10;27.30
12763;BME280;6445;52.490;13.378;2023-05-10T12:01:05;52796.25;;;-146.10;26.86
12763;BME280;6445;52.490;13.378;2023-05-10T12:03:31;52784.25;;;-146.10;26.72
12763;BME280;6445;52.490;13.378;2023-05-10T12:05:57;52664.19;;;-146.10;27.66
12763;BME280;6445;52.490;13.378;2023-05-10T12:08:25;52626.16;;;-146.10;27.87
12763;BME280;6445;52.490;13.378;2023-05-10T12:10:51;52784.25;;;-146.10;26.97
12763;BME280;6445;52.490;13.378;2023-05-10T12:13:18;52736.22;;;-146.10;27.64
12763;BME280;6445;52.490;13.378;2023-05-10T12:15:44;52688.19;;;-146.10;27.72
12763;BME280;6445;52.490;13.378;2023-05-10T12:18:11;52730.22;;;-146.10;27.41
12763;BME280;6445;52.490;13.378;2023-05-10T12:20:36;52708.22;;;-146.10;27.71
12763;BME280;6445;52.490;13.378;2023-05-10T12:23:02;52766.22;;;-146.10;26.90
12763;BME280;6445;52.490;13.378;2023-05-10T12:25:35;52728.22;;;-146.10;27.15
12763;BME280;6445;52.490;13.378;2023-05-10T12:28:06;52906.28;;;-146.10;26.42
12763;BME280;6445;52.490;13.378;2023-05-10T12:30:33;52838.25;;;-146.10;26.55
12763;BME280;6445;52.490;13.378;2023-05-10T12:33:12;52850.28;;;-146.10;26.76
12763;BME280;6445;52.490;13.378;2023-05-10T12:35:52;52840.25;;;-146.10;26.74
12763;BME280;6445;52.490;13.378;2023-05-10T12:40:54;52758.22;;;-146.10;27.33
12763;BME280;6445;52.490;13.378;2023-05-10T12:43:20;52820.25;;;-146.10;27.00
12763;BME280;6445;52.490;13.378;2023-05-10T12:45:45;52774.22;;;-146.10;27.54
12763;BME280;6445;52.490;13.378;2023-05-10T12:48:13;52800.25;;;-146.10;27.37
12763;BME280;6445;52.490;13.378;2023-05-10T12:50:38;52876.28;;;-146.10;27.42
12763;BME280;6445;52.490;13.378;2023-05-10T12:53:03;52786.25;;;-146.10;27.50
12763;BME280;6445;52.490;13.378;2023-05-10T12:55:28;52742.22;;;-146.10;27.52
12763;BME280;6445;52.490;13.378;2023-05-10T12:57:54;52810.25;;;-146.10;27.35
12763;BME280;6445;52.490;13.378;2023-05-10T13:00:19;52726.22;;;-146.10;27.62
12763;BME280;6445;52.490;13.378;2023-05-10T13:02:44;52724.22;;;-146.10;27.32